Погода Сан-Бенедиту-ду-Риу-Претуна неделю

Мараньян, Бразилия

24 - 30 июля
  • 24июля
    Сегодня
    +22°
    +31°
    Практически безоблачно
    ВремяПогодаТемператураВлажностьДавлениеВетер, м/сВероятность осадков
    00:00Ясно и безоблачно+24°C84 %758 мм2.6 м/с5 %
    03:00Ясно и безоблачно+23°C94 %756 мм2.4 м/с5 %
    06:00Ясно и безоблачно+23°C97 %757 мм2.0 м/с5 %
    09:00Небольшая облачность+28°C75 %758 мм2.5 м/с5 %
    12:00Ясно и безоблачно+30°C51 %758 мм4.2 м/с5 %
    15:00Практически безоблачно+31°C44 %756 мм3.7 м/с5 %
    18:00Практически безоблачно+29°C65 %756 мм1.6 м/с5 %
    21:00Ясно и безоблачно+26°C73 %757 мм1.3 м/с5 %
  • 25июля
    Четверг
    +22°
    +31°
    Ясно и безоблачно
    ВремяПогодаТемператураВлажностьДавлениеВетер, м/сВероятность осадков
    00:00Практически безоблачно+24°C81 %758 мм2.9 м/с5 %
    03:00Практически безоблачно+23°C87 %757 мм1.9 м/с2 %
    06:00Ясно и безоблачно+23°C93 %757 мм2.3 м/с3 %
    09:00Ясно и безоблачно+27°C71 %759 мм3.2 м/с2 %
    12:00Ясно и безоблачно+29°C44 %757 мм4.4 м/с2 %
    15:00Ясно и безоблачно+31°C42 %755 мм3.5 м/с5 %
    18:00Ясно и безоблачно+29°C57 %755 мм1.4 м/с5 %
    21:00Ясно и безоблачно+26°C58 %757 мм0.4 м/с5 %
  • 26июля
    Пятница
    +22°
    +31°
    Облачно с прояснениями
    ВремяПогодаТемператураВлажностьДавлениеВетер, м/сВероятность осадков
    00:00Ясно и безоблачно+24°C77 %757 мм3.7 м/с5 %
    03:00Ясно и безоблачно+22°C86 %755 мм2.8 м/с5 %
    06:00Ясно и безоблачно+22°C92 %756 мм2.6 м/с2 %
    09:00Ясно и безоблачно+27°C74 %758 мм3.1 м/с5 %
    12:00Небольшая облачность+30°C47 %756 мм4.2 м/с5 %
    15:00Облачно с прояснениями+30°C47 %755 мм2.7 м/с5 %
    18:00Небольшая облачность+29°C60 %755 мм1.0 м/с5 %
    21:00Ясно и безоблачно+25°C70 %757 мм4.0 м/с5 %
  • 27июля
    Суббота
    +23°
    +32°
    Ясно и безоблачно
    ВремяПогодаТемператураВлажностьДавлениеВетер, м/сВероятность осадков
    00:00Ясно и безоблачно+24°C84 %757 мм2.5 м/с5 %
    03:00Ясно и безоблачно+23°C90 %756 мм2.7 м/с4 %
    06:00Ясно и безоблачно+23°C90 %756 мм3.0 м/с5 %
    09:00Ясно и безоблачно+27°C68 %758 мм3.9 м/с9 %
    12:00Ясно и безоблачно+30°C49 %757 мм4.4 м/с4 %
    15:00Ясно и безоблачно+32°C41 %755 мм3.6 м/с5 %
    18:00Ясно и безоблачно+29°C60 %756 мм1.7 м/с3 %
    21:00Ясно и безоблачно+26°C78 %757 мм3.7 м/с8 %
  • 28июля
    Воскресенье
    +23°
    +33°
    Ясно и безоблачно
    ВремяПогодаТемператураВлажностьДавлениеВетер, м/сВероятность осадков
    00:00Ясно и безоблачно+24°C86 %757 мм3.3 м/с17 %
    03:00Ясно и безоблачно+24°C92 %756 мм2.8 м/с15 %
    06:00Ясно и безоблачно+24°C88 %757 мм2.9 м/с10 %
    09:00Ясно и безоблачно+27°C69 %758 мм3.2 м/с6 %
    12:00Ясно и безоблачно+31°C53 %757 мм4.2 м/с6 %
    15:00Ясно и безоблачно+33°C50 %755 мм3.3 м/с4 %
    18:00Практически безоблачно+30°C64 %756 мм1.9 м/с8 %
    21:00Ясно и безоблачно+26°C80 %757 мм3.2 м/с38 %
Мы используем cookies
Соглашаюсь